Time;durP1;ratioP1;P1;durP2;ratioP2;P2;SDS_P1;SDS_P2;PMS_P1;PMS_P2;Temp;Humidity;BMP_temperature;BMP_pressure;BME280_temperature;BME280_humidity;BME280_pressure;Samples;Min_cycle;Max_cycle;Signal;HPM_P1;HPM_P2
2022/11/12 00:00:24;;;;;;;11.70;5.03;;;8.40;99.90;;;;;;4232486;28;20047;-85
2022/11/12 00:02:25;;;;;;;10.88;5.30;;;8.40;99.90;;;;;;4214725;28;20054;-87
2022/11/12 00:04:25;;;;;;;8.98;5.40;;;8.40;99.90;;;;;;4221545;28;20130;-85
2022/11/12 00:06:26;;;;;;;10.10;5.20;;;8.40;99.90;;;;;;4218125;28;20508;-85
2022/11/12 00:08:27;;;;;;;8.43;4.60;;;8.50;99.90;;;;;;4229937;28;20040;-85
2022/11/12 00:10:30;;;;;;;10.60;5.07;;;8.50;99.90;;;;;;4213311;28;20566;-86
2022/11/12 00:12:31;;;;;;;11.85;5.05;;;8.50;99.90;;;;;;4229465;28;20052;-86
2022/11/12 00:14:32;;;;;;;8.25;4.38;;;8.50;99.90;;;;;;4230801;28;20047;-86
2022/11/12 00:16:33;;;;;;;13.00;4.97;;;8.60;99.90;;;;;;4229537;28;20031;-87
2022/11/12 00:18:33;;;;;;;10.63;5.50;;;8.60;99.90;;;;;;4231218;28;20441;-86
2022/11/12 00:20:35;;;;;;;14.38;5.65;;;8.60;99.90;;;;;;4231244;28;20563;-86
2022/11/12 00:22:37;;;;;;;10.50;4.65;;;8.60;99.90;;;;;;4221820;28;20114;-86
2022/11/12 00:24:38;;;;;;;9.35;4.82;;;8.60;99.90;;;;;;4213201;28;20052;-86
2022/11/12 00:26:39;;;;;;;9.25;4.97;;;8.50;99.90;;;;;;4229725;28;20055;-86
2022/11/12 00:28:40;;;;;;;9.23;5.07;;;8.60;99.90;;;;;;4229665;28;20059;-86
2022/11/12 00:30:42;;;;;;;9.85;5.38;;;8.60;99.90;;;;;;4229232;28;20052;-86
2022/11/12 00:32:42;;;;;;;9.95;4.90;;;8.90;99.90;;;;;;4230992;28;20088;-86
2022/11/12 00:34:44;;;;;;;8.43;4.57;;;8.50;99.90;;;;;;4230075;28;20126;-86
2022/11/12 00:36:45;;;;;;;17.90;5.82;;;8.30;99.90;;;;;;4231180;28;20039;-86
2022/11/12 00:38:46;;;;;;;14.23;5.13;;;8.60;99.90;;;;;;4216226;28;20043;-86
2022/11/12 00:40:46;;;;;;;9.93;5.22;;;8.50;99.90;;;;;;4222436;28;20079;-85
2022/11/12 00:42:51;;;;;;;10.38;5.03;;;8.50;99.90;;;;;;4215270;28;20078;-86
2022/11/12 00:44:51;;;;;;;11.90;4.80;;;8.50;99.90;;;;;;4213132;28;20506;-86
2022/11/12 00:46:52;;;;;;;14.50;5.18;;;8.50;99.90;;;;;;4230726;28;20040;-86
2022/11/12 00:48:53;;;;;;;10.40;5.57;;;8.50;99.90;;;;;;4229528;28;20534;-86
2022/11/12 00:51:04;;;;;;;10.70;5.68;;;8.40;99.90;;;;;;4213021;28;20462;-86
2022/11/12 00:53:05;;;;;;;14.02;5.53;;;8.50;99.90;;;;;;4226943;28;20075;-86
2022/11/12 00:55:06;;;;;;;12.90;5.72;;;8.40;99.90;;;;;;4218811;28;20050;-86
2022/11/12 00:57:06;;;;;;;13.55;5.50;;;8.40;99.90;;;;;;4213725;28;20052;-86
2022/11/12 00:59:07;;;;;;;12.88;5.82;;;8.40;99.90;;;;;;4228725;28;20051;-86
2022/11/12 01:01:11;;;;;;;9.40;5.60;;;8.30;99.90;;;;;;4230312;28;20044;-86
2022/11/12 01:03:14;;;;;;;11.80;5.25;;;8.30;99.90;;;;;;4213014;28;20082;-86
2022/11/12 01:05:15;;;;;;;12.85;5.25;;;8.30;99.90;;;;;;4230402;28;20075;-86
2022/11/12 01:07:17;;;;;;;10.95;4.93;;;8.30;99.90;;;;;;4230692;28;20388;-86
2022/11/12 01:09:17;;;;;;;8.38;4.97;;;8.30;99.90;;;;;;4230376;28;20047;-87
2022/11/12 01:11:22;;;;;;;9.65;5.40;;;8.30;99.90;;;;;;4223041;28;20125;-86
2022/11/12 01:13:23;;;;;;;12.27;5.70;;;8.40;99.90;;;;;;4228910;28;20396;-86
2022/11/12 01:15:24;;;;;;;9.40;5.07;;;8.30;99.90;;;;;;4231396;28;20526;-86
2022/11/12 01:17:25;;;;;;;10.13;4.93;;;8.20;99.90;;;;;;4232497;28;20052;-86
2022/11/12 01:19:26;;;;;;;10.15;4.93;;;8.20;99.90;;;;;;4215966;28;20056;-86
2022/11/12 01:21:29;;;;;;;10.40;5.45;;;8.20;99.90;;;;;;4251548;27;20590;-86
2022/11/12 01:23:32;;;;;;;10.25;5.82;;;8.20;99.90;;;;;;4231841;28;20043;-86
2022/11/12 01:25:36;;;;;;;9.73;5.25;;;8.20;99.90;;;;;;4210180;28;20198;-86
2022/11/12 01:27:37;;;;;;;12.23;5.13;;;8.20;99.90;;;;;;4235583;28;20051;-86
2022/11/12 01:29:37;;;;;;;10.98;5.75;;;8.40;99.90;;;;;;4252697;27;20043;-86
2022/11/12 01:31:38;;;;;;;12.88;5.97;;;8.10;99.90;;;;;;4235354;28;20094;-85
2022/11/12 01:33:40;;;;;;;17.10;6.90;;;8.20;99.90;;;;;;4254941;27;20095;-86
2022/11/12 01:35:40;;;;;;;17.05;7.13;;;8.10;99.90;;;;;;4257722;27;20051;-85
2022/11/12 01:37:41;;;;;;;12.20;6.10;;;8.10;99.90;;;;;;4257556;27;20039;-85
2022/11/12 01:39:42;;;;;;;12.38;6.30;;;8.00;99.90;;;;;;4265637;27;20043;-85
2022/11/12 01:41:43;;;;;;;13.00;7.22;;;8.00;99.90;;;;;;4248826;28;20055;-85
2022/11/12 01:43:44;;;;;;;11.45;5.95;;;8.10;99.90;;;;;;4247973;28;20039;-85
2022/11/12 01:45:47;;;;;;;11.95;6.13;;;7.90;99.90;;;;;;4264784;27;20039;-85
2022/11/12 01:47:51;;;;;;;11.45;6.15;;;7.90;99.90;;;;;;4236926;28;20048;-85
2022/11/12 01:50:00;;;;;;;10.88;5.93;;;7.90;99.90;;;;;;4218901;28;20040;-86
2022/11/12 01:52:42;;;;;;;11.60;6.13;;;7.80;99.90;;;;;;4236705;28;20055;-85
2022/11/12 01:54:48;;;;;;;9.88;6.07;;;7.80;99.90;;;;;;4250353;27;20122;-85
2022/11/12 01:56:50;;;;;;;12.95;6.53;;;7.80;99.90;;;;;;4256026;27;20043;-86
2022/11/12 01:58:58;;;;;;;11.95;5.65;;;7.80;99.90;;;;;;4255520;27;20122;-85
2022/11/12 02:01:01;;;;;;;13.40;6.40;;;7.80;99.90;;;;;;4256741;27;20155;-85
2022/11/12 02:03:08;;;;;;;14.20;6.78;;;7.70;99.90;;;;;;4237707;28;20055;-86
2022/11/12 02:05:10;;;;;;;13.52;7.43;;;7.70;99.90;;;;;;4256652;27;20062;-86
2022/11/12 02:07:11;;;;;;;15.27;6.70;;;7.80;99.90;;;;;;4255964;27;20047;-85
2022/11/12 02:09:13;;;;;;;10.43;5.63;;;7.70;99.90;;;;;;4231659;28;20592;-86
2022/11/12 02:11:20;;;;;;;12.85;6.65;;;7.60;99.90;;;;;;4231756;28;20473;-85
2022/11/12 02:15:41;;;;;;;13.32;6.55;;;7.50;99.90;;;;;;4250122;27;20055;-86
2022/11/12 02:17:41;;;;;;;12.88;7.43;;;7.50;99.90;;;;;;4250047;27;20505;-86
2022/11/12 02:19:46;;;;;;;15.68;7.05;;;7.40;99.90;;;;;;4231355;28;20079;-85
2022/11/12 02:21:47;;;;;;;13.18;6.53;;;7.40;99.90;;;;;;4231669;28;20079;-86
2022/11/12 02:23:58;;;;;;;12.00;6.25;;;7.40;99.90;;;;;;4214743;28;20577;-86
2022/11/12 02:25:59;;;;;;;13.20;5.63;;;7.30;99.90;;;;;;4248674;27;20118;-86
2022/11/12 02:28:03;;;;;;;11.68;6.45;;;7.40;99.90;;;;;;4249637;27;20051;-86
2022/11/12 02:30:05;;;;;;;11.70;6.00;;;7.30;99.90;;;;;;4235271;27;20054;-86
2022/11/12 02:32:07;;;;;;;11.32;5.50;;;7.20;99.90;;;;;;4227294;28;20445;-86
2022/11/12 02:34:09;;;;;;;12.95;7.25;;;7.20;99.90;;;;;;4215121;28;20051;-85
2022/11/12 02:36:09;;;;;;;16.17;7.47;;;7.40;99.90;;;;;;4231491;28;20129;-86
2022/11/12 02:38:11;;;;;;;15.90;6.25;;;7.20;99.90;;;;;;4231435;28;20065;-86
2022/11/12 02:40:12;;;;;;;12.23;6.28;;;7.20;99.90;;;;;;4249237;27;20493;-85
2022/11/12 02:42:13;;;;;;;16.98;7.45;;;7.10;99.90;;;;;;4249516;27;20039;-86
2022/11/12 02:44:15;;;;;;;12.52;6.60;;;7.20;99.90;;;;;;4214499;28;20058;-86
2022/11/12 02:46:16;;;;;;;12.50;6.68;;;7.20;99.90;;;;;;4223944;28;20078;-86
2022/11/12 02:48:17;;;;;;;11.55;6.85;;;7.10;99.90;;;;;;4249295;27;20047;-86
2022/11/12 02:50:18;;;;;;;15.88;7.45;;;7.10;99.90;;;;;;4213904;28;20052;-86
2022/11/12 02:52:19;;;;;;;14.15;7.20;;;7.20;99.90;;;;;;4249321;27;20421;-86
2022/11/12 02:54:20;;;;;;;14.80;7.28;;;7.00;99.90;;;;;;4231690;28;20104;-86
2022/11/12 02:56:21;;;;;;;15.95;7.20;;;7.20;99.90;;;;;;4249480;27;20039;-86
2022/11/12 02:58:23;;;;;;;13.85;6.93;;;7.00;99.90;;;;;;4230466;28;20397;-86
2022/11/12 03:00:24;;;;;;;16.17;7.55;;;7.00;99.90;;;;;;4231383;28;20146;-85
2022/11/12 03:02:25;;;;;;;17.45;7.90;;;7.00;99.90;;;;;;4228744;28;20104;-85
2022/11/12 03:04:25;;;;;;;16.05;7.97;;;7.50;99.90;;;;;;4221157;28;20054;-86
2022/11/12 03:06:26;;;;;;;14.05;7.38;;;7.00;99.90;;;;;;4248728;27;20140;-86
2022/11/12 03:08:27;;;;;;;13.48;7.05;;;7.00;99.90;;;;;;4231164;28;20079;-86
2022/11/12 03:10:29;;;;;;;15.68;7.82;;;7.00;99.90;;;;;;4249165;27;20039;-85
2022/11/12 03:12:31;;;;;;;15.15;8.00;;;7.00;99.90;;;;;;4214612;28;20063;-86
2022/11/12 03:14:32;;;;;;;15.45;7.47;;;6.90;99.90;;;;;;4230970;28;20043;-85
2022/11/12 03:16:35;;;;;;;12.40;7.60;;;6.90;99.90;;;;;;4213776;28;20134;-86
2022/11/12 03:18:37;;;;;;;17.23;8.35;;;6.90;99.90;;;;;;4248951;27;20126;-86
2022/11/12 03:20:38;;;;;;;18.05;8.68;;;6.90;99.90;;;;;;4213598;28;20455;-85
2022/11/12 03:22:41;;;;;;;15.63;7.75;;;6.90;99.90;;;;;;4223069;28;20048;-85
2022/11/12 03:24:41;;;;;;;15.63;7.18;;;6.80;99.90;;;;;;4249725;27;20037;-85
2022/11/12 03:26:42;;;;;;;15.07;9.00;;;7.10;99.90;;;;;;4230691;28;20075;-85
2022/11/12 03:28:44;;;;;;;17.30;8.02;;;6.80;99.90;;;;;;4249330;27;20042;-85
2022/11/12 03:30:45;;;;;;;19.08;8.05;;;7.10;99.90;;;;;;4230431;28;20044;-86
2022/11/12 03:32:46;;;;;;;15.65;8.05;;;6.80;99.90;;;;;;4231040;28;20051;-85
2022/11/12 03:34:46;;;;;;;17.60;8.48;;;6.80;99.90;;;;;;4248036;27;20077;-86
2022/11/12 03:36:47;;;;;;;17.05;8.38;;;6.80;99.90;;;;;;4226174;28;20051;-85
2022/11/12 03:38:49;;;;;;;16.85;8.13;;;6.80;99.90;;;;;;4214150;28;20127;-85
2022/11/12 03:40:50;;;;;;;16.98;7.47;;;6.80;99.90;;;;;;4230195;28;20048;-85
2022/11/12 03:42:51;;;;;;;18.70;8.48;;;6.70;99.90;;;;;;4231103;28;20040;-85
2022/11/12 03:44:52;;;;;;;13.07;7.55;;;7.00;99.90;;;;;;4230579;28;20511;-85
2022/11/12 03:46:53;;;;;;;14.40;8.30;;;6.90;99.90;;;;;;4214325;28;20404;-85
2022/11/12 03:48:53;;;;;;;16.67;9.02;;;6.80;99.90;;;;;;4248463;27;20621;-85
2022/11/12 03:50:58;;;;;;;16.35;8.45;;;6.80;99.90;;;;;;4249255;27;20039;-86
2022/11/12 03:53:00;;;;;;;16.15;8.38;;;6.80;99.90;;;;;;4229791;28;20097;-85
2022/11/12 03:55:01;;;;;;;19.55;8.98;;;7.30;99.90;;;;;;4248386;27;20081;-85
2022/11/12 03:57:03;;;;;;;14.57;8.13;;;6.80;99.90;;;;;;4247966;27;20035;-85
2022/11/12 03:59:04;;;;;;;17.20;9.20;;;6.80;99.90;;;;;;4213559;28;20058;-85
2022/11/12 04:01:05;;;;;;;15.48;8.27;;;6.80;99.90;;;;;;4226292;28;20047;-85
2022/11/12 04:03:07;;;;;;;16.30;8.70;;;6.70;99.90;;;;;;4230300;28;20128;-85
2022/11/12 04:09:48;;;;;;;15.65;8.55;;;6.70;99.90;;;;;;4225713;28;20428;-85
2022/11/12 04:11:50;;;;;;;22.10;8.70;;;6.70;99.90;;;;;;4248520;28;20043;-85
2022/11/12 04:13:51;;;;;;;20.92;9.32;;;6.70;99.90;;;;;;4230498;28;20056;-86
2022/11/12 04:22:55;;;;;;;15.70;8.50;;;6.70;99.90;;;;;;4242919;28;20455;-86
2022/11/12 04:27:17;;;;;;;15.55;8.43;;;6.60;99.90;;;;;;4228124;28;20484;-86
2022/11/12 04:31:37;;;;;;;17.73;9.13;;;6.60;99.90;;;;;;4248009;28;20047;-86
2022/11/12 04:33:39;;;;;;;13.60;8.52;;;6.50;99.90;;;;;;4230653;28;20046;-86
2022/11/12 04:35:40;;;;;;;16.73;8.82;;;6.60;99.90;;;;;;4230825;28;20059;-85
2022/11/12 04:37:43;;;;;;;16.10;8.43;;;6.40;99.90;;;;;;4230229;28;20109;-85
2022/11/12 04:39:44;;;;;;;18.02;8.95;;;6.50;99.90;;;;;;4248625;28;20407;-85
2022/11/12 04:46:25;;;;;;;16.85;8.57;;;6.40;99.90;;;;;;4220977;28;20407;-86
2022/11/12 04:48:26;;;;;;;16.20;8.23;;;6.40;99.90;;;;;;4248329;28;20043;-86
2022/11/12 04:50:27;;;;;;;16.45;8.27;;;6.40;99.90;;;;;;4250291;27;20452;-86
2022/11/12 04:52:29;;;;;;;16.90;8.52;;;6.30;99.90;;;;;;4233585;28;20051;-86
2022/11/12 04:54:32;;;;;;;15.93;9.10;;;6.30;99.90;;;;;;4251428;27;20543;-86
2022/11/12 04:56:32;;;;;;;16.70;8.90;;;6.30;99.90;;;;;;4232982;28;20055;-86
2022/11/12 04:58:34;;;;;;;16.42;8.68;;;6.20;99.90;;;;;;4233045;28;20511;-85
2022/11/12 05:00:35;;;;;;;18.00;8.63;;;6.20;99.90;;;;;;4233180;28;20044;-86
2022/11/12 05:02:35;;;;;;;16.75;9.95;;;6.60;99.90;;;;;;4235347;28;20107;-86
2022/11/12 05:04:36;;;;;;;21.92;9.18;;;6.10;99.90;;;;;;4224501;28;20047;-86
2022/11/12 05:06:50;;;;;;;14.45;8.32;;;6.10;99.90;;;;;;4252568;27;20044;-86
2022/11/12 05:08:50;;;;;;;15.43;8.30;;;6.10;99.90;;;;;;4233027;28;20044;-86
2022/11/12 05:10:51;;;;;;;18.95;8.88;;;6.10;99.90;;;;;;4252525;27;20439;-86
2022/11/12 05:12:52;;;;;;;14.23;8.50;;;6.10;99.90;;;;;;4252298;27;20051;-86
2022/11/12 05:14:53;;;;;;;16.33;7.88;;;6.00;99.90;;;;;;4243992;27;20521;-86
2022/11/12 05:16:53;;;;;;;15.63;8.70;;;6.00;99.90;;;;;;4242914;27;20051;-86
2022/11/12 05:18:55;;;;;;;17.35;9.27;;;6.00;99.90;;;;;;4234479;28;20044;-86
2022/11/12 05:20:55;;;;;;;19.83;9.25;;;6.00;99.90;;;;;;4246420;27;20542;-85
2022/11/12 05:22:57;;;;;;;18.60;8.95;;;6.00;99.90;;;;;;4251967;27;20040;-86
2022/11/12 05:24:59;;;;;;;13.85;8.65;;;6.00;99.90;;;;;;4234447;28;20066;-85
2022/11/12 05:27:01;;;;;;;15.68;9.00;;;6.00;99.90;;;;;;4229662;28;20527;-86
2022/11/12 05:29:03;;;;;;;18.48;9.55;;;6.20;99.90;;;;;;4215706;28;20169;-86
2022/11/12 05:31:04;;;;;;;15.57;8.50;;;6.00;99.90;;;;;;4219782;28;20108;-86
2022/11/12 05:33:06;;;;;;;16.33;9.82;;;6.00;99.90;;;;;;4250672;27;20556;-85
2022/11/12 05:35:07;;;;;;;15.60;8.05;;;6.10;99.90;;;;;;4232467;28;20075;-85
2022/11/12 05:37:10;;;;;;;17.23;8.43;;;6.10;99.90;;;;;;4250655;27;20065;-86
2022/11/12 05:39:12;;;;;;;17.67;9.90;;;6.10;99.90;;;;;;4216123;28;20120;-86
2022/11/12 05:41:13;;;;;;;14.60;8.80;;;6.10;99.90;;;;;;4250895;27;20040;-86
2022/11/12 05:43:13;;;;;;;17.90;9.23;;;6.60;99.90;;;;;;4220027;28;20070;-86
2022/11/12 05:45:14;;;;;;;20.52;9.70;;;6.10;99.90;;;;;;4240361;27;20506;-85
2022/11/12 05:47:15;;;;;;;18.92;9.60;;;6.20;99.90;;;;;;4216095;28;20576;-86
2022/11/12 05:49:17;;;;;;;17.95;9.05;;;6.10;99.90;;;;;;4239703;27;20051;-85
2022/11/12 05:51:18;;;;;;;18.27;9.10;;;6.10;99.90;;;;;;4250472;27;20444;-85
2022/11/12 05:53:19;;;;;;;16.23;8.98;;;6.30;99.90;;;;;;4250297;27;20054;-85
2022/11/12 05:55:19;;;;;;;16.13;9.32;;;6.10;99.90;;;;;;4232061;28;20055;-85
2022/11/12 05:57:21;;;;;;;16.95;9.20;;;6.10;99.90;;;;;;4232228;28;20046;-85
2022/11/12 05:59:23;;;;;;;18.45;9.38;;;6.10;99.90;;;;;;4231897;28;20054;-86
2022/11/12 06:01:24;;;;;;;18.70;10.35;;;6.10;99.90;;;;;;4242104;27;20090;-86
2022/11/12 06:03:25;;;;;;;20.50;9.43;;;6.10;99.90;;;;;;4198376;28;20049;-86
2022/11/12 06:05:27;;;;;;;17.95;9.35;;;6.10;99.90;;;;;;4248382;27;20039;-86
2022/11/12 06:07:27;;;;;;;17.70;9.00;;;6.30;99.90;;;;;;4250213;27;20035;-86
2022/11/12 06:09:29;;;;;;;18.15;9.13;;;6.20;99.90;;;;;;4240566;27;20046;-86
2022/11/12 06:11:31;;;;;;;15.88;9.25;;;5.90;99.90;;;;;;4215061;28;20131;-86
2022/11/12 06:13:31;;;;;;;19.90;9.85;;;6.00;99.90;;;;;;4240226;27;20055;-86
2022/11/12 06:15:33;;;;;;;18.25;9.32;;;5.90;99.90;;;;;;4231934;28;20152;-86
2022/11/12 06:17:35;;;;;;;21.52;9.18;;;5.90;99.90;;;;;;4249427;27;20035;-86
2022/11/12 06:19:36;;;;;;;19.48;8.75;;;6.10;99.90;;;;;;4249118;27;20072;-86
2022/11/12 06:21:36;;;;;;;23.08;9.35;;;5.80;99.90;;;;;;4216021;28;20077;-86
2022/11/12 06:23:38;;;;;;;14.88;8.43;;;6.10;99.90;;;;;;4231693;28;20078;-86
2022/11/12 06:25:39;;;;;;;18.25;9.27;;;5.80;99.90;;;;;;4232692;28;20561;-86
2022/11/12 06:27:39;;;;;;;23.73;11.25;;;6.60;99.90;;;;;;4250142;27;20061;-86
2022/11/12 06:29:41;;;;;;;17.73;8.75;;;5.80;99.90;;;;;;4250888;27;20107;-86
2022/11/12 06:31:43;;;;;;;16.52;9.02;;;6.10;99.90;;;;;;4249145;27;20549;-86
2022/11/12 06:33:45;;;;;;;14.32;8.52;;;5.70;99.90;;;;;;4232036;28;20115;-87
2022/11/12 06:35:46;;;;;;;19.75;10.07;;;5.70;99.90;;;;;;4249402;27;20520;-86
2022/11/12 06:37:47;;;;;;;16.15;8.15;;;5.70;99.90;;;;;;4232842;28;20036;-86
2022/11/12 06:39:49;;;;;;;15.90;8.93;;;5.70;99.90;;;;;;4215785;28;20102;-86
2022/11/12 06:41:50;;;;;;;18.52;8.88;;;5.80;99.90;;;;;;4214555;28;20168;-87
2022/11/12 06:43:51;;;;;;;16.27;8.82;;;5.60;99.90;;;;;;4249289;27;20039;-86
2022/11/12 06:45:53;;;;;;;15.30;8.27;;;5.60;99.90;;;;;;4249988;27;20047;-86
2022/11/12 06:47:58;;;;;;;12.68;8.18;;;5.60;99.90;;;;;;4231617;28;20073;-85
2022/11/12 06:49:59;;;;;;;15.60;7.80;;;5.50;99.90;;;;;;4214795;28;20127;-85
2022/11/12 06:52:00;;;;;;;14.05;7.70;;;5.40;99.90;;;;;;4230681;28;20126;-86
2022/11/12 06:54:01;;;;;;;17.10;7.18;;;5.40;99.90;;;;;;4249000;27;20039;-87
2022/11/12 06:56:05;;;;;;;12.70;7.45;;;5.50;99.90;;;;;;4231303;28;20048;-86
2022/11/12 06:58:07;;;;;;;12.70;7.22;;;5.30;99.90;;;;;;4230943;28;20507;-86
2022/11/12 07:00:10;;;;;;;15.40;8.10;;;5.30;99.90;;;;;;4249381;27;20112;-86
2022/11/12 07:02:12;;;;;;;14.73;7.72;;;5.40;99.90;;;;;;4230981;28;20399;-86
2022/11/12 07:04:13;;;;;;;14.50;7.57;;;5.40;99.90;;;;;;4248681;27;20160;-86
2022/11/12 07:06:18;;;;;;;15.65;7.82;;;5.40;99.90;;;;;;4249216;27;20043;-86
2022/11/12 07:08:19;;;;;;;14.85;8.35;;;5.40;99.90;;;;;;4203930;28;20055;-86
2022/11/12 07:10:20;;;;;;;14.25;8.02;;;5.40;99.90;;;;;;4248781;27;20395;-85
2022/11/12 07:12:21;;;;;;;14.65;7.88;;;5.40;99.90;;;;;;4230160;28;20067;-86
2022/11/12 07:14:21;;;;;;;17.33;8.50;;;6.10;99.90;;;;;;4248739;27;20060;-85
2022/11/12 07:16:22;;;;;;;15.05;8.50;;;6.30;99.90;;;;;;4248533;27;20127;-85
2022/11/12 07:18:23;;;;;;;17.42;9.82;;;5.50;99.90;;;;;;4248906;27;20050;-86
2022/11/12 07:20:24;;;;;;;14.73;8.55;;;5.60;99.90;;;;;;4213727;28;20052;-86
2022/11/12 07:22:26;;;;;;;16.73;8.25;;;6.20;99.90;;;;;;4211488;28;20549;-86
2022/11/12 07:24:27;;;;;;;17.45;8.85;;;5.90;99.90;;;;;;4201013;28;20063;-87
2022/11/12 07:26:29;;;;;;;18.80;9.48;;;5.70;99.90;;;;;;4231535;28;20046;-86
2022/11/12 07:28:31;;;;;;;15.95;8.65;;;5.70;99.90;;;;;;4242769;27;20058;-86
2022/11/12 07:30:32;;;;;;;16.42;9.30;;;5.70;99.90;;;;;;4216226;28;20419;-85
2022/11/12 07:32:33;;;;;;;17.75;8.82;;;5.70;99.90;;;;;;4248316;27;20071;-85
2022/11/12 07:34:35;;;;;;;19.48;9.02;;;5.80;99.90;;;;;;4248821;27;20043;-87
2022/11/12 07:36:36;;;;;;;27.15;9.70;;;5.80;99.90;;;;;;4249447;27;20047;-86
2022/11/12 07:38:38;;;;;;;26.27;9.45;;;5.80;99.90;;;;;;4249874;27;20041;-85
2022/11/12 07:40:39;;;;;;;37.85;10.43;;;5.90;99.90;;;;;;4230167;28;20541;-86
2022/11/12 07:42:41;;;;;;;29.75;10.82;;;6.40;99.90;;;;;;4230839;28;20051;-86
2022/11/12 07:44:42;;;;;;;30.98;10.52;;;5.90;99.90;;;;;;4249620;27;20067;-86
2022/11/12 07:46:43;;;;;;;32.85;10.90;;;5.90;99.90;;;;;;4243492;27;20080;-86
2022/11/12 07:48:45;;;;;;;38.22;10.85;;;6.00;99.90;;;;;;4248816;27;20043;-86
2022/11/12 07:50:46;;;;;;;32.85;10.57;;;6.00;99.90;;;;;;4231442;28;20503;-86
2022/11/12 07:52:46;;;;;;;68.80;11.27;;;6.10;99.90;;;;;;4249246;27;20043;-85
2022/11/12 07:54:47;;;;;;;63.85;12.18;;;6.10;99.90;;;;;;4231315;28;20136;-86
2022/11/12 07:56:48;;;;;;;51.35;11.38;;;6.00;99.90;;;;;;4249425;27;20046;-86
2022/11/12 07:58:49;;;;;;;65.15;12.10;;;6.10;99.90;;;;;;4230805;28;20055;-86
2022/11/12 08:00:51;;;;;;;76.35;13.27;;;6.10;99.90;;;;;;4213746;28;20051;-86
2022/11/12 08:02:53;;;;;;;95.47;15.40;;;6.20;99.90;;;;;;4231571;28;20692;-88
2022/11/12 08:04:53;;;;;;;63.67;13.52;;;6.20;99.90;;;;;;4210370;28;20048;-88
2022/11/12 08:06:54;;;;;;;62.60;13.07;;;6.20;99.90;;;;;;4249357;27;20116;-86
2022/11/12 08:08:58;;;;;;;68.65;13.27;;;6.30;99.90;;;;;;4245966;27;20093;-88
2022/11/12 08:10:59;;;;;;;79.68;13.40;;;6.40;99.90;;;;;;4214882;28;20048;-88
2022/11/12 08:12:59;;;;;;;77.85;14.25;;;6.70;99.90;;;;;;4250336;28;20140;-89
2022/11/12 08:15:00;;;;;;;47.28;13.55;;;6.40;99.90;;;;;;4217029;28;20055;-89
2022/11/12 08:17:02;;;;;;;68.00;14.95;;;6.50;99.90;;;;;;4217630;28;20122;-87
2022/11/12 08:19:03;;;;;;;72.78;15.32;;;6.60;99.90;;;;;;4236269;28;20430;-86
2022/11/12 08:21:06;;;;;;;54.80;13.60;;;6.60;99.90;;;;;;4213768;28;20044;-86
2022/11/12 08:23:08;;;;;;;82.00;15.25;;;6.60;99.90;;;;;;4255741;28;20043;-86
2022/11/12 08:25:09;;;;;;;75.57;15.85;;;6.60;99.90;;;;;;4228910;28;20055;-87
2022/11/12 08:27:11;;;;;;;83.55;16.48;;;6.70;99.90;;;;;;4264616;27;20093;-89
2022/11/12 08:29:12;;;;;;;86.68;15.77;;;6.70;99.90;;;;;;4252164;27;20047;-87
2022/11/12 08:31:16;;;;;;;66.80;13.98;;;6.80;99.90;;;;;;4268118;27;20059;-89
2022/11/12 08:33:17;;;;;;;69.47;14.77;;;6.70;99.90;;;;;;4267392;27;20031;-89
2022/11/12 08:35:18;;;;;;;81.22;17.17;;;6.70;99.90;;;;;;4247828;28;20094;-84
2022/11/12 08:37:19;;;;;;;62.80;15.73;;;6.90;99.90;;;;;;4240784;28;20047;-86
2022/11/12 08:39:21;;;;;;;58.40;15.48;;;6.90;99.90;;;;;;4252862;27;20051;-87
2022/11/12 08:41:22;;;;;;;73.30;15.45;;;6.90;99.90;;;;;;4233765;28;20055;-85
2022/11/12 08:43:22;;;;;;;52.13;15.05;;;6.90;99.90;;;;;;4253452;27;20039;-86
2022/11/12 08:45:23;;;;;;;63.88;15.70;;;6.90;99.90;;;;;;4234489;28;20051;-87
2022/11/12 08:47:24;;;;;;;72.82;15.93;;;7.00;99.90;;;;;;4234534;28;20051;-87
2022/11/12 08:49:26;;;;;;;62.20;15.90;;;7.00;99.90;;;;;;4229813;28;20126;-86
2022/11/12 08:51:27;;;;;;;63.72;15.77;;;7.30;99.90;;;;;;4252600;27;20039;-86
2022/11/12 08:53:29;;;;;;;65.55;14.65;;;7.10;99.90;;;;;;4233976;28;20503;-85
2022/11/12 08:55:31;;;;;;;56.30;13.68;;;7.10;99.90;;;;;;4252586;27;20078;-86
2022/11/12 08:57:37;;;;;;;84.63;14.27;;;7.20;99.90;;;;;;4234289;28;20126;-87
2022/11/12 08:59:39;;;;;;;117.30;16.75;;;7.20;99.90;;;;;;4252942;27;20448;-87
2022/11/12 09:01:40;;;;;;;72.45;14.70;;;7.70;99.90;;;;;;4233528;28;20043;-86
2022/11/12 09:03:42;;;;;;;61.53;15.57;;;7.30;99.90;;;;;;4251807;27;20075;-86
2022/11/12 09:05:44;;;;;;;71.22;13.80;;;7.30;99.90;;;;;;4251750;27;20403;-86
2022/11/12 09:08:03;;;;;;;83.47;15.85;;;7.40;99.90;;;;;;4233996;28;20082;-86
2022/11/12 09:10:04;;;;;;;74.15;15.80;;;7.40;99.90;;;;;;4220999;28;20080;-87
2022/11/12 09:12:05;;;;;;;66.32;14.27;;;7.40;99.90;;;;;;4217089;28;20126;-87
2022/11/12 09:14:06;;;;;;;80.57;16.45;;;7.50;99.90;;;;;;4251314;27;20119;-87
2022/11/12 09:16:08;;;;;;;68.63;15.55;;;7.50;99.90;;;;;;4233596;28;20043;-87
2022/11/12 09:18:17;;;;;;;72.25;16.65;;;7.50;99.90;;;;;;4234054;28;20047;-87
2022/11/12 09:20:18;;;;;;;80.70;14.45;;;7.50;99.90;;;;;;4232475;28;20083;-87
2022/11/12 09:22:18;;;;;;;75.55;14.52;;;7.50;99.90;;;;;;4217082;28;20051;-87
2022/11/12 09:24:19;;;;;;;86.82;16.50;;;7.90;99.90;;;;;;4218878;28;20044;-87
2022/11/12 09:26:20;;;;;;;70.82;16.15;;;7.60;99.90;;;;;;4223120;28;20550;-88
2022/11/12 09:28:22;;;;;;;84.03;15.73;;;8.10;99.90;;;;;;4251817;27;20477;-87
2022/11/12 09:30:23;;;;;;;96.40;15.50;;;7.60;99.90;;;;;;4232960;28;20047;-88
2022/11/12 09:32:24;;;;;;;72.97;15.82;;;7.60;99.90;;;;;;4232303;28;20047;-87
2022/11/12 09:34:25;;;;;;;66.78;15.43;;;7.90;99.90;;;;;;4250723;27;20199;-87
2022/11/12 09:36:26;;;;;;;67.50;15.68;;;8.00;99.90;;;;;;4227702;28;20052;-87
2022/11/12 09:38:26;;;;;;;102.63;16.50;;;7.70;99.90;;;;;;4231938;28;20054;-88
2022/11/12 09:40:40;;;;;;;92.13;16.65;;;7.80;99.90;;;;;;4222371;28;20538;-87
2022/11/12 09:42:46;;;;;;;90.15;16.05;;;7.80;99.90;;;;;;4250722;27;20966;-87
2022/11/12 09:45:04;;;;;;;110.20;16.60;;;7.80;99.90;;;;;;4232160;28;20052;-87
2022/11/12 09:47:30;;;;;;;87.93;15.35;;;7.80;99.90;;;;;;4232202;28;20564;-86
2022/11/12 09:49:42;;;;;;;91.93;15.63;;;7.90;99.90;;;;;;4232433;28;20052;-87
2022/11/12 09:52:01;;;;;;;91.50;16.85;;;7.90;99.90;;;;;;4227551;28;20566;-87
2022/11/12 09:54:17;;;;;;;112.10;15.80;;;7.90;99.90;;;;;;4217246;28;20057;-87
2022/11/12 09:56:20;;;;;;;105.07;15.25;;;7.90;99.90;;;;;;4215852;28;20073;-87
2022/11/12 09:58:21;;;;;;;104.88;16.63;;;8.00;99.90;;;;;;4205415;28;20044;-87
2022/11/12 10:00:22;;;;;;;117.93;17.88;;;8.00;99.90;;;;;;4251614;27;20486;-87
2022/11/12 10:02:38;;;;;;;90.25;16.10;;;8.10;99.90;;;;;;4232658;28;20072;-87
2022/11/12 10:05:05;;;;;;;87.70;17.92;;;8.00;99.90;;;;;;4232812;28;20261;-87
2022/11/12 10:07:37;;;;;;;85.82;14.45;;;7.90;99.90;;;;;;4249349;27;20096;-88
2022/11/12 10:10:04;;;;;;;60.83;14.95;;;8.00;99.90;;;;;;4221343;28;20052;-87
2022/11/12 10:12:33;;;;;;;85.65;16.92;;;7.90;99.90;;;;;;4230576;28;20097;-88
2022/11/12 10:14:53;;;;;;;76.93;15.52;;;8.00;99.90;;;;;;4217134;28;20059;-87
2022/11/12 10:17:18;;;;;;;98.55;16.23;;;8.00;99.90;;;;;;4227243;28;20078;-87
2022/11/12 10:19:26;;;;;;;86.65;17.38;;;8.00;99.90;;;;;;4250554;27;20064;-88
2022/11/12 10:22:05;;;;;;;64.93;13.80;;;8.00;99.90;;;;;;4251418;27;20050;-87
2022/11/12 10:24:10;;;;;;;66.20;14.80;;;8.00;99.90;;;;;;4232340;28;20043;-87
2022/11/12 10:26:15;;;;;;;66.78;15.55;;;8.00;99.90;;;;;;4232370;28;20047;-86
2022/11/12 10:28:33;;;;;;;74.05;15.90;;;7.90;99.90;;;;;;4231798;28;20043;-86
2022/11/12 10:30:35;;;;;;;55.10;14.13;;;8.00;99.90;;;;;;4216118;28;20050;-86
2022/11/12 10:32:36;;;;;;;77.57;15.52;;;8.10;99.90;;;;;;4233327;28;20564;-87
2022/11/12 10:34:37;;;;;;;68.78;14.35;;;8.20;99.90;;;;;;4233080;28;20051;-87
2022/11/12 10:36:43;;;;;;;81.50;15.27;;;8.40;99.90;;;;;;4219507;28;20113;-87
2022/11/12 10:38:48;;;;;;;83.22;14.77;;;8.40;99.90;;;;;;4253597;27;20076;-86
2022/11/12 10:40:49;;;;;;;64.45;14.45;;;8.00;99.90;;;;;;4219899;28;20123;-87
2022/11/12 10:43:01;;;;;;;90.90;13.38;;;8.00;99.90;;;;;;4238234;28;20050;-86
2022/11/12 10:45:22;;;;;;;60.03;14.45;;;8.00;99.90;;;;;;4246715;28;20079;-86
2022/11/12 10:47:22;;;;;;;73.55;13.95;;;7.90;99.90;;;;;;4245904;28;20051;-85
2022/11/12 10:49:24;;;;;;;56.35;14.18;;;7.80;99.90;;;;;;4246819;27;20040;-86
2022/11/12 10:51:34;;;;;;;60.33;14.95;;;7.90;99.90;;;;;;4227329;28;20588;-87
2022/11/12 10:53:38;;;;;;;44.03;13.60;;;7.90;99.90;;;;;;4241386;28;20075;-87
2022/11/12 10:55:57;;;;;;;52.13;14.52;;;7.90;99.90;;;;;;4234114;28;20052;-87
2022/11/12 10:58:19;;;;;;;79.35;14.07;;;7.90;99.90;;;;;;4251852;27;20054;-87
2022/11/12 11:00:20;;;;;;;58.88;13.00;;;8.00;99.90;;;;;;4233724;28;20047;-86